Time;durP1;ratioP1;P1;durP2;ratioP2;P2;SDS_P1;SDS_P2;PMS_P1;PMS_P2;Temp;Humidity;BMP_temperature;BMP_pressure;BME280_temperature;BME280_humidity;BME280_pressure;Samples;Min_cycle;Max_cycle;Signal;HPM_P1;HPM_P2
2021/04/07 00:01:43;;;;;;;5.88;2.50;;;;;;;;;;6089110;29;20455;-75
2021/04/07 00:04:48;;;;;;;2.33;2.00;;;;;;;;;;6088514;29;20075;-75
2021/04/07 00:07:51;;;;;;;2.40;1.90;;;;;;;;;;6088983;29;20107;-73
2021/04/07 00:10:55;;;;;;;3.70;1.73;;;;;;;;;;6095772;29;21253;-76
2021/04/07 00:13:58;;;;;;;2.40;1.77;;;;;;;;;;6092674;29;20055;-75
2021/04/07 00:16:59;;;;;;;5.85;1.88;;;;;;;;;;6089549;29;20551;-74
2021/04/07 00:20:00;;;;;;;3.85;1.50;;;;;;;;;;6097067;29;20055;-75
2021/04/07 00:23:03;;;;;;;5.32;1.45;;;;;;;;;;6096539;29;20135;-75
2021/04/07 00:26:04;;;;;;;2.65;1.27;;;;;;;;;;6093744;29;20381;-73
2021/04/07 00:29:06;;;;;;;3.58;1.63;;;;;;;;;;6096040;29;20052;-74
2021/04/07 00:32:07;;;;;;;2.20;1.40;;;;;;;;;;6093974;29;20056;-73
2021/04/07 00:35:10;;;;;;;4.18;1.85;;;;;;;;;;6091424;29;20084;-73
2021/04/07 00:38:11;;;;;;;3.92;1.90;;;;;;;;;;6093990;29;20783;-76
2021/04/07 00:41:12;;;;;;;2.92;1.80;;;;;;;;;;6096213;29;20044;-74
2021/04/07 00:44:14;;;;;;;5.50;2.40;;;;;;;;;;6089792;29;20079;-76
2021/04/07 00:47:17;;;;;;;7.00;2.25;;;;;;;;;;6090440;29;20074;-73
2021/04/07 00:50:19;;;;;;;3.42;1.70;;;;;;;;;;6094796;29;20133;-74
2021/04/07 00:53:20;;;;;;;4.38;1.90;;;;;;;;;;6092332;29;20081;-73
2021/04/07 00:56:22;;;;;;;3.75;1.85;;;;;;;;;;6093217;29;20135;-73
2021/04/07 00:59:24;;;;;;;5.65;1.95;;;;;;;;;;6092033;29;20074;-74
2021/04/07 01:02:25;;;;;;;7.07;2.28;;;;;;;;;;6119312;23;20109;-69
2021/04/07 01:05:27;;;;;;;4.03;1.63;;;;;;;;;;6131467;29;20424;-69
2021/04/07 01:08:28;;;;;;;4.47;1.60;;;;;;;;;;6132108;29;20090;-69
2021/04/07 01:11:29;;;;;;;3.33;1.73;;;;;;;;;;6132429;29;20078;-69
2021/04/07 01:14:32;;;;;;;6.25;1.80;;;;;;;;;;6133317;29;20063;-69
2021/04/07 01:17:33;;;;;;;2.05;1.60;;;;;;;;;;6132298;29;20095;-69
2021/04/07 01:20:34;;;;;;;5.95;2.75;;;;;;;;;;6121686;29;20143;-71
2021/04/07 01:23:36;;;;;;;3.00;1.98;;;;;;;;;;6118958;29;20142;-69
2021/04/07 01:26:38;;;;;;;4.18;2.50;;;;;;;;;;6115182;29;20056;-68
2021/04/07 01:29:39;;;;;;;5.75;2.60;;;;;;;;;;6117163;29;20079;-70
2021/04/07 01:32:41;;;;;;;5.18;2.53;;;;;;;;;;6119796;29;20640;-70
2021/04/07 01:35:42;;;;;;;4.28;2.75;;;;;;;;;;6119016;29;20056;-70
2021/04/07 01:38:43;;;;;;;5.32;2.40;;;;;;;;;;6119073;29;20040;-70
2021/04/07 01:41:45;;;;;;;4.53;2.63;;;;;;;;;;6113045;29;20071;-70
2021/04/07 01:44:46;;;;;;;4.35;2.60;;;;;;;;;;6115030;29;20470;-69
2021/04/07 01:47:47;;;;;;;5.15;2.70;;;;;;;;;;6125744;29;20070;-69
2021/04/07 01:50:49;;;;;;;4.32;2.30;;;;;;;;;;6122027;29;20550;-70
2021/04/07 01:54:00;;;;;;;4.63;2.92;;;;;;;;;;6119541;29;20592;-69
2021/04/07 01:57:02;;;;;;;6.40;3.30;;;;;;;;;;6122331;29;20079;-69
2021/04/07 02:00:06;;;;;;;6.78;3.40;;;;;;;;;;6117154;29;20063;-69
2021/04/07 02:03:07;;;;;;;3.83;3.17;;;;;;;;;;6107612;29;20480;-70
2021/04/07 02:06:08;;;;;;;4.65;3.45;;;;;;;;;;6114047;29;20138;-70
2021/04/07 02:09:10;;;;;;;4.25;2.88;;;;;;;;;;6116833;29;20070;-70
2021/04/07 02:12:12;;;;;;;2.88;2.45;;;;;;;;;;6107924;29;20055;-69
2021/04/07 02:15:14;;;;;;;5.38;2.92;;;;;;;;;;6109273;29;20059;-70
2021/04/07 02:18:15;;;;;;;5.32;3.03;;;;;;;;;;6108654;29;20150;-70
2021/04/07 02:21:16;;;;;;;5.50;2.95;;;;;;;;;;6110100;29;20091;-70
2021/04/07 02:24:17;;;;;;;5.13;2.65;;;;;;;;;;6112974;29;20489;-70
2021/04/07 02:27:21;;;;;;;5.18;2.67;;;;;;;;;;6117297;29;20080;-70
2021/04/07 02:30:22;;;;;;;7.23;2.43;;;;;;;;;;6119398;29;20074;-70
2021/04/07 02:33:23;;;;;;;4.50;2.28;;;;;;;;;;6107914;29;20503;-70
2021/04/07 02:36:24;;;;;;;5.00;2.40;;;;;;;;;;6106086;29;20055;-70
2021/04/07 02:39:25;;;;;;;5.93;2.70;;;;;;;;;;6107724;29;20142;-70
2021/04/07 02:42:27;;;;;;;4.40;2.88;;;;;;;;;;6106649;29;20118;-70
2021/04/07 02:45:29;;;;;;;4.38;2.78;;;;;;;;;;6106989;29;20470;-70
2021/04/07 02:48:30;;;;;;;4.45;2.55;;;;;;;;;;6112166;29;20074;-70
2021/04/07 02:51:31;;;;;;;4.30;3.28;;;;;;;;;;6107094;29;20083;-69
2021/04/07 02:54:32;;;;;;;5.22;2.95;;;;;;;;;;6115055;29;20056;-69
2021/04/07 02:57:34;;;;;;;5.60;3.40;;;;;;;;;;6117234;29;20096;-69
2021/04/07 03:00:35;;;;;;;5.20;3.50;;;;;;;;;;6107239;29;20669;-69
2021/04/07 03:03:36;;;;;;;5.78;3.45;;;;;;;;;;6114850;29;20555;-69
2021/04/07 03:06:37;;;;;;;5.60;3.67;;;;;;;;;;6119971;29;20119;-69
2021/04/07 03:09:38;;;;;;;8.13;3.50;;;;;;;;;;6121298;29;20469;-69
2021/04/07 03:12:40;;;;;;;7.10;3.78;;;;;;;;;;6118705;29;20524;-69
2021/04/07 03:15:41;;;;;;;8.82;3.95;;;;;;;;;;6114941;29;20086;-69
2021/04/07 03:18:43;;;;;;;5.45;3.65;;;;;;;;;;6114062;29;20506;-69
2021/04/07 03:21:44;;;;;;;6.13;3.88;;;;;;;;;;6108664;29;20071;-69
2021/04/07 03:24:45;;;;;;;8.02;4.45;;;;;;;;;;6114028;29;20094;-69
2021/04/07 03:27:47;;;;;;;5.35;3.55;;;;;;;;;;6113414;29;20054;-68
2021/04/07 03:30:51;;;;;;;5.55;3.72;;;;;;;;;;6113424;29;20078;-69
2021/04/07 03:33:52;;;;;;;10.82;3.90;;;;;;;;;;6119310;29;20043;-69
2021/04/07 03:36:53;;;;;;;5.53;3.92;;;;;;;;;;6121664;29;20139;-69
2021/04/07 03:39:54;;;;;;;8.77;5.03;;;;;;;;;;6119941;29;20083;-69
2021/04/07 03:42:56;;;;;;;7.07;4.05;;;;;;;;;;6122097;29;20063;-69
2021/04/07 03:45:59;;;;;;;7.25;3.83;;;;;;;;;;6113015;29;20508;-69
2021/04/07 03:49:00;;;;;;;6.00;4.32;;;;;;;;;;6108493;29;20468;-69
2021/04/07 03:52:01;;;;;;;9.68;4.47;;;;;;;;;;6108012;29;20131;-69
2021/04/07 03:55:02;;;;;;;7.82;4.72;;;;;;;;;;6107891;29;20459;-69
2021/04/07 03:58:04;;;;;;;10.55;4.75;;;;;;;;;;6106351;29;20056;-69
2021/04/07 04:01:05;;;;;;;6.85;4.45;;;;;;;;;;6108668;29;20143;-69
2021/04/07 04:04:08;;;;;;;6.90;4.53;;;;;;;;;;6118344;29;20546;-69
2021/04/07 04:07:09;;;;;;;8.82;4.30;;;;;;;;;;6119379;29;20199;-70
2021/04/07 04:10:11;;;;;;;5.43;4.35;;;;;;;;;;6122340;29;20764;-69
2021/04/07 04:13:13;;;;;;;7.68;4.30;;;;;;;;;;6112195;29;20048;-69
2021/04/07 04:16:15;;;;;;;7.22;4.38;;;;;;;;;;6111706;29;20180;-69
2021/04/07 04:19:16;;;;;;;10.32;4.95;;;;;;;;;;6115263;29;20556;-69
2021/04/07 04:22:17;;;;;;;6.85;4.82;;;;;;;;;;6111188;29;20067;-69
2021/04/07 04:25:19;;;;;;;8.95;4.90;;;;;;;;;;6113213;29;20058;-69
2021/04/07 04:28:21;;;;;;;6.95;4.50;;;;;;;;;;6119228;29;20051;-69
2021/04/07 04:31:22;;;;;;;7.15;5.18;;;;;;;;;;6119304;29;20111;-69
2021/04/07 04:34:23;;;;;;;7.60;4.82;;;;;;;;;;6115755;29;20122;-68
2021/04/07 04:37:24;;;;;;;10.68;5.80;;;;;;;;;;6115275;29;20062;-69
2021/04/07 04:40:25;;;;;;;6.65;5.10;;;;;;;;;;6109862;29;20071;-69
2021/04/07 04:43:27;;;;;;;7.75;5.75;;;;;;;;;;6115542;29;20047;-69
2021/04/07 04:46:28;;;;;;;11.23;5.95;;;;;;;;;;6116348;29;20095;-68
2021/04/07 04:49:29;;;;;;;8.55;4.95;;;;;;;;;;6110643;29;20403;-69
2021/04/07 04:52:30;;;;;;;11.05;5.68;;;;;;;;;;6113815;29;20135;-69
2021/04/07 04:55:31;;;;;;;8.43;5.07;;;;;;;;;;6116774;29;20158;-69
2021/04/07 04:58:33;;;;;;;9.10;5.80;;;;;;;;;;6111895;29;20079;-70
2021/04/07 05:01:34;;;;;;;9.70;5.57;;;;;;;;;;6104348;29;20731;-70
2021/04/07 05:04:36;;;;;;;11.88;5.22;;;;;;;;;;6108582;29;20052;-71
2021/04/07 05:07:37;;;;;;;10.02;5.18;;;;;;;;;;6107582;29;20060;-68
2021/04/07 05:10:38;;;;;;;8.05;5.18;;;;;;;;;;6110777;29;20499;-69
2021/04/07 05:13:40;;;;;;;11.40;5.70;;;;;;;;;;6109901;29;20144;-69
2021/04/07 05:16:41;;;;;;;16.75;5.30;;;;;;;;;;6110486;29;20111;-68
2021/04/07 05:19:42;;;;;;;14.30;5.38;;;;;;;;;;6117285;29;20056;-68
2021/04/07 05:22:43;;;;;;;12.43;5.50;;;;;;;;;;6118870;29;20094;-72
2021/04/07 05:25:44;;;;;;;6.68;4.90;;;;;;;;;;6121135;29;20116;-71
2021/04/07 05:28:46;;;;;;;10.32;5.05;;;;;;;;;;6121757;29;20054;-71
2021/04/07 05:31:47;;;;;;;11.98;5.60;;;;;;;;;;6109957;29;20048;-71
2021/04/07 05:34:48;;;;;;;8.35;5.95;;;;;;;;;;6116427;29;20154;-71
2021/04/07 05:37:49;;;;;;;12.15;5.85;;;;;;;;;;6127460;28;20087;-71
2021/04/07 05:40:51;;;;;;;12.18;6.20;;;;;;;;;;6124914;29;20139;-71
2021/04/07 05:43:53;;;;;;;9.68;6.15;;;;;;;;;;6121801;29;20106;-71
2021/04/07 05:46:54;;;;;;;10.23;6.75;;;;;;;;;;6122760;29;20676;-70
2021/04/07 05:49:55;;;;;;;10.82;5.93;;;;;;;;;;6113198;29;20196;-73
2021/04/07 05:52:56;;;;;;;10.00;5.90;;;;;;;;;;6116962;29;20151;-71
2021/04/07 05:55:58;;;;;;;9.40;5.88;;;;;;;;;;6121285;29;20138;-72
2021/04/07 05:59:00;;;;;;;8.27;5.78;;;;;;;;;;6120436;29;20175;-70
2021/04/07 06:02:03;;;;;;;12.27;6.25;;;;;;;;;;6107504;29;20052;-70
2021/04/07 06:05:04;;;;;;;11.63;5.68;;;;;;;;;;6105296;29;20638;-70
2021/04/07 06:08:06;;;;;;;8.90;5.88;;;;;;;;;;6109676;29;20587;-72
2021/04/07 06:11:07;;;;;;;11.20;5.82;;;;;;;;;;6109401;29;20063;-73
2021/04/07 06:14:09;;;;;;;10.25;5.65;;;;;;;;;;6110350;29;20126;-69
2021/04/07 06:17:10;;;;;;;8.52;6.28;;;;;;;;;;6106258;29;20589;-72
2021/04/07 06:20:12;;;;;;;11.48;5.07;;;;;;;;;;6108178;29;20167;-69
2021/04/07 06:23:14;;;;;;;9.18;5.40;;;;;;;;;;6108270;29;20187;-71
2021/04/07 06:26:15;;;;;;;14.90;5.93;;;;;;;;;;6100448;29;20166;-72
2021/04/07 06:29:17;;;;;;;9.90;6.00;;;;;;;;;;6104814;29;20134;-70
2021/04/07 06:32:18;;;;;;;11.52;5.15;;;;;;;;;;6105293;29;20135;-73
2021/04/07 06:35:19;;;;;;;10.43;5.32;;;;;;;;;;6109995;29;20193;-70
2021/04/07 06:38:21;;;;;;;7.10;4.80;;;;;;;;;;6106052;29;20131;-71
2021/04/07 06:41:22;;;;;;;11.70;4.95;;;;;;;;;;6104909;29;20777;-71
2021/04/07 06:44:24;;;;;;;10.50;4.70;;;;;;;;;;6104462;29;20075;-71
2021/04/07 06:47:26;;;;;;;14.45;5.43;;;;;;;;;;6106863;29;20223;-71
2021/04/07 06:50:28;;;;;;;7.13;4.80;;;;;;;;;;6114070;29;20143;-71
2021/04/07 06:53:30;;;;;;;14.45;4.90;;;;;;;;;;6119705;29;20147;-71
2021/04/07 06:56:31;;;;;;;8.02;4.45;;;;;;;;;;6106071;29;20066;-71
2021/04/07 06:59:36;;;;;;;9.88;4.88;;;;;;;;;;6106266;29;20534;-70
2021/04/07 07:02:37;;;;;;;9.18;3.70;;;;;;;;;;6107159;29;20143;-71
2021/04/07 07:05:39;;;;;;;16.42;3.80;;;;;;;;;;6107128;29;20051;-71
2021/04/07 07:08:40;;;;;;;8.05;3.22;;;;;;;;;;6109886;29;20630;-70
2021/04/07 07:11:42;;;;;;;9.23;2.90;;;;;;;;;;6105321;29;20052;-70
2021/04/07 07:14:45;;;;;;;6.70;2.17;;;;;;;;;;6101720;29;20884;-70
2021/04/07 07:17:48;;;;;;;6.43;2.03;;;;;;;;;;6105125;29;20047;-71
2021/04/07 07:20:49;;;;;;;11.77;2.08;;;;;;;;;;6103218;29;20055;-71
2021/04/07 07:23:50;;;;;;;7.75;1.63;;;;;;;;;;6101292;29;20048;-71
2021/04/07 07:26:51;;;;;;;4.10;1.38;;;;;;;;;;6105249;29;20142;-69
2021/04/07 07:29:55;;;;;;;6.63;1.33;;;;;;;;;;6106768;29;20067;-71
2021/04/07 07:32:56;;;;;;;3.80;1.48;;;;;;;;;;6104681;29;20059;-71
2021/04/07 07:36:07;;;;;;;3.22;1.38;;;;;;;;;;6107086;29;20707;-71
2021/04/07 07:39:08;;;;;;;2.55;1.13;;;;;;;;;;6114352;29;20474;-71
2021/04/07 07:42:11;;;;;;;7.18;1.13;;;;;;;;;;6111737;29;20047;-71
2021/04/07 07:45:14;;;;;;;2.08;0.93;;;;;;;;;;6116481;29;20526;-72
2021/04/07 07:48:18;;;;;;;4.07;1.13;;;;;;;;;;6112100;29;20046;-71
2021/04/07 07:51:20;;;;;;;11.90;1.20;;;;;;;;;;6110215;29;20048;-71
2021/04/07 07:54:23;;;;;;;4.95;1.05;;;;;;;;;;6105265;29;20499;-72
2021/04/07 07:57:25;;;;;;;10.83;1.50;;;;;;;;;;6114817;29;20067;-71
2021/04/07 08:00:27;;;;;;;2.60;1.08;;;;;;;;;;6112710;29;20138;-71
2021/04/07 08:03:30;;;;;;;2.25;1.02;;;;;;;;;;6109147;29;20091;-71
2021/04/07 08:06:31;;;;;;;17.38;1.73;;;;;;;;;;6105450;29;20051;-71
2021/04/07 08:09:32;;;;;;;5.53;0.60;;;;;;;;;;6109943;29;20154;-70
2021/04/07 08:12:33;;;;;;;5.70;0.88;;;;;;;;;;6105314;29;20070;-70
2021/04/07 08:15:35;;;;;;;4.43;0.80;;;;;;;;;;6104868;29;20079;-70
2021/04/07 08:18:37;;;;;;;3.47;0.90;;;;;;;;;;6106813;29;20452;-72
2021/04/07 08:21:39;;;;;;;4.85;0.82;;;;;;;;;;6104883;29;20111;-72
2021/04/07 08:24:40;;;;;;;6.35;0.75;;;;;;;;;;6101391;29;20135;-72
2021/04/07 08:27:42;;;;;;;2.70;0.60;;;;;;;;;;6107609;29;20242;-71
2021/04/07 08:30:44;;;;;;;5.80;0.88;;;;;;;;;;6118327;29;20135;-71
2021/04/07 08:33:47;;;;;;;7.25;0.98;;;;;;;;;;6116453;29;20126;-71
2021/04/07 08:36:48;;;;;;;9.50;1.13;;;;;;;;;;6116846;29;20143;-71
2021/04/07 08:39:49;;;;;;;3.83;0.80;;;;;;;;;;6106295;29;20127;-71
2021/04/07 08:42:52;;;;;;;4.65;1.10;;;;;;;;;;6113090;29;20055;-70
2021/04/07 08:45:53;;;;;;;9.20;1.00;;;;;;;;;;6114736;29;20597;-72
2021/04/07 08:48:56;;;;;;;5.90;0.77;;;;;;;;;;6115694;29;20091;-72
2021/04/07 08:51:57;;;;;;;6.00;0.80;;;;;;;;;;6124996;29;20071;-72
2021/04/07 08:54:59;;;;;;;11.80;0.95;;;;;;;;;;6114609;29;20067;-72
2021/04/07 08:58:02;;;;;;;12.07;0.82;;;;;;;;;;6109229;29;20052;-70
2021/04/07 09:01:03;;;;;;;11.32;1.00;;;;;;;;;;6106514;29;20109;-70
2021/04/07 09:04:08;;;;;;;10.82;1.65;;;;;;;;;;6108192;29;20047;-72
2021/04/07 09:07:12;;;;;;;;;;;;;;;;;;6122005;29;20175;-72
2021/04/07 09:10:15;;;;;;;4.28;1.17;;;;;;;;;;6118985;29;19985;-72
2021/04/07 09:13:19;;;;;;;5.88;0.70;;;;;;;;;;6115334;29;20138;-71
2021/04/07 09:16:30;;;;;;;9.05;0.90;;;;;;;;;;6110989;29;20052;-71
2021/04/07 09:19:33;;;;;;;16.55;2.42;;;;;;;;;;6108666;29;20134;-71
2021/04/07 09:22:46;;;;;;;4.30;0.65;;;;;;;;;;6112033;29;20048;-73
2021/04/07 09:25:50;;;;;;;7.72;0.90;;;;;;;;;;6112221;29;20043;-71
2021/04/07 09:28:51;;;;;;;;;;;;;;;;;;6111941;29;20183;-71
2021/04/07 09:31:53;;;;;;;1.83;0.70;;;;;;;;;;6104286;29;20433;-71
2021/04/07 09:34:55;;;;;;;5.47;0.77;;;;;;;;;;6108969;29;20573;-69
2021/04/07 09:37:58;;;;;;;18.92;2.00;;;;;;;;;;6106242;29;20062;-71
2021/04/07 09:41:07;;;;;;;12.77;0.98;;;;;;;;;;6111420;29;20067;-71
2021/04/07 09:44:09;;;;;;;4.60;0.80;;;;;;;;;;6118672;29;20086;-69
2021/04/07 09:47:11;;;;;;;3.95;0.90;;;;;;;;;;6116988;29;20119;-72
2021/04/07 09:50:13;;;;;;;2.72;0.60;;;;;;;;;;6108260;29;20087;-71
2021/04/07 09:53:26;;;;;;;3.92;0.82;;;;;;;;;;6113029;29;20076;-71
2021/04/07 09:56:27;;;;;;;3.65;0.60;;;;;;;;;;6117803;29;20143;-70
2021/04/07 09:59:40;;;;;;;4.72;0.98;;;;;;;;;;6115691;29;20094;-71
2021/04/07 10:02:42;;;;;;;2.85;0.75;;;;;;;;;;6108035;29;20055;-72
2021/04/07 10:05:43;;;;;;;2.78;0.90;;;;;;;;;;6116020;29;20051;-72
2021/04/07 10:08:44;;;;;;;9.80;1.45;;;;;;;;;;6116692;29;20064;-72
2021/04/07 10:11:45;;;;;;;11.02;1.23;;;;;;;;;;6110815;29;20489;-72
2021/04/07 10:14:48;;;;;;;1.50;0.63;;;;;;;;;;6109202;29;20052;-72
2021/04/07 10:17:50;;;;;;;7.82;1.00;;;;;;;;;;6114842;29;20044;-70
2021/04/07 10:20:51;;;;;;;4.68;0.85;;;;;;;;;;6114091;29;20079;-71
2021/04/07 10:23:53;;;;;;;9.38;0.90;;;;;;;;;;6113567;29;20094;-71
2021/04/07 10:26:54;;;;;;;2.28;0.90;;;;;;;;;;6104905;29;20067;-70
2021/04/07 10:30:04;;;;;;;2.88;0.80;;;;;;;;;;6109807;29;20130;-70
2021/04/07 10:33:06;;;;;;;3.00;0.70;;;;;;;;;;6113477;29;20050;-70
2021/04/07 10:36:07;;;;;;;2.25;0.77;;;;;;;;;;6117537;29;20071;-70
2021/04/07 10:39:12;;;;;;;12.80;1.15;;;;;;;;;;6108847;29;20063;-70
2021/04/07 10:42:16;;;;;;;18.58;1.30;;;;;;;;;;6103162;29;20543;-70
2021/04/07 10:45:19;;;;;;;6.50;1.30;;;;;;;;;;6087942;29;20158;-71
2021/04/07 10:48:21;;;;;;;12.88;1.00;;;;;;;;;;6092860;29;20052;-72
2021/04/07 10:51:23;;;;;;;7.85;0.88;;;;;;;;;;6090299;29;20095;-72
2021/04/07 10:54:25;;;;;;;14.13;1.15;;;;;;;;;;6095148;29;20072;-74
2021/04/07 10:57:31;;;;;;;13.68;1.10;;;;;;;;;;6110394;29;20059;-69
2021/04/07 11:00:37;;;;;;;33.03;2.58;;;;;;;;;;6104334;29;20087;-70
2021/04/07 11:03:39;;;;;;;26.02;2.78;;;;;;;;;;6105724;29;20773;-69
2021/04/07 11:06:40;;;;;;;42.80;3.70;;;;;;;;;;6107315;29;20135;-71
2021/04/07 11:09:46;;;;;;;48.35;3.22;;;;;;;;;;6105345;29;20067;-72
2021/04/07 11:12:48;;;;;;;41.97;3.72;;;;;;;;;;6105124;29;20134;-69
2021/04/07 11:15:49;;;;;;;17.60;1.33;;;;;;;;;;6103230;29;20047;-70
2021/04/07 11:18:54;;;;;;;84.13;6.20;;;;;;;;;;6113070;29;20052;-72
2021/04/07 11:21:55;;;;;;;32.63;2.35;;;;;;;;;;6114051;29;20070;-71
2021/04/07 11:24:56;;;;;;;35.40;3.58;;;;;;;;;;6111698;29;20137;-75
2021/04/07 11:27:58;;;;;;;17.52;2.70;;;;;;;;;;6108492;29;20051;-73
2021/04/07 11:31:04;;;;;;;44.50;3.47;;;;;;;;;;6113533;29;20061;-73
2021/04/07 11:34:08;;;;;;;89.57;7.82;;;;;;;;;;6116615;29;20048;-71
2021/04/07 11:37:19;;;;;;;53.92;4.13;;;;;;;;;;6115142;29;20135;-72
2021/04/07 11:40:34;;;;;;;11.65;1.40;;;;;;;;;;6113986;29;20044;-69
2021/04/07 11:43:46;;;;;;;14.10;1.20;;;;;;;;;;6108667;29;20052;-69
2021/04/07 11:46:47;;;;;;;3.42;0.70;;;;;;;;;;6113456;29;20052;-70
2021/04/07 11:49:49;;;;;;;5.40;0.90;;;;;;;;;;6112988;29;20126;-74
2021/04/07 11:52:50;;;;;;;2.65;0.75;;;;;;;;;;6116528;29;20139;-69
2021/04/07 11:55:51;;;;;;;4.60;0.90;;;;;;;;;;6112905;29;20074;-71
2021/04/07 11:58:52;;;;;;;9.25;1.30;;;;;;;;;;6116781;29;20134;-70
2021/04/07 12:01:55;;;;;;;5.43;0.73;;;;;;;;;;6111520;29;20142;-69
2021/04/07 12:04:57;;;;;;;3.93;1.00;;;;;;;;;;6112730;29;20052;-70
2021/04/07 12:07:58;;;;;;;2.35;0.70;;;;;;;;;;6116349;29;20051;-71
2021/04/07 12:11:00;;;;;;;6.57;1.00;;;;;;;;;;6114347;29;20051;-72
2021/04/07 12:14:01;;;;;;;10.20;1.30;;;;;;;;;;6115237;29;20740;-72
2021/04/07 12:17:02;;;;;;;48.88;3.78;;;;;;;;;;6117009;28;20142;-70
2021/04/07 12:20:05;;;;;;;0.93;0.60;;;;;;;;;;6117215;29;20487;-72
2021/04/07 12:23:06;;;;;;;1.92;0.45;;;;;;;;;;6112252;29;20447;-70
2021/04/07 12:26:07;;;;;;;14.13;1.05;;;;;;;;;;6114625;29;20059;-72
2021/04/07 12:29:08;;;;;;;6.03;0.57;;;;;;;;;;6114405;29;20138;-70
2021/04/07 12:32:10;;;;;;;3.97;0.70;;;;;;;;;;6114626;29;20072;-71
2021/04/07 12:35:33;;;;;;;8.10;5.18;;;;;;;;;;6117994;29;20043;-69
2021/04/07 12:38:35;;;;;;;6.05;1.65;;;;;;;;;;6109458;29;20052;-71
2021/04/07 12:41:47;;;;;;;2.88;1.88;;;;;;;;;;6115993;29;20059;-69
2021/04/07 12:44:48;;;;;;;10.85;1.63;;;;;;;;;;6115294;29;20074;-70
2021/04/07 12:47:49;;;;;;;14.70;1.58;;;;;;;;;;6123392;29;20130;-69
2021/04/07 12:50:51;;;;;;;2.40;0.80;;;;;;;;;;6119222;29;20048;-69
2021/04/07 12:53:53;;;;;;;8.20;0.90;;;;;;;;;;6120214;29;21052;-70
2021/04/07 12:56:54;;;;;;;6.70;0.70;;;;;;;;;;6120374;29;21863;-71
2021/04/07 12:59:55;;;;;;;5.05;0.70;;;;;;;;;;6116083;29;20098;-71
2021/04/07 13:02:56;;;;;;;1.60;0.70;;;;;;;;;;6117768;29;20135;-70
2021/04/07 13:05:58;;;;;;;6.07;0.95;;;;;;;;;;6114429;29;20050;-70
2021/04/07 13:08:59;;;;;;;19.13;1.52;;;;;;;;;;6112240;29;20143;-70
2021/04/07 13:12:00;;;;;;;2.95;1.15;;;;;;;;;;6110227;29;20087;-70
2021/04/07 13:15:01;;;;;;;3.20;0.70;;;;;;;;;;6111485;29;20099;-70
2021/04/07 13:18:02;;;;;;;4.75;0.60;;;;;;;;;;6113258;29;20051;-71
2021/04/07 13:21:08;;;;;;;20.63;1.80;;;;;;;;;;6109765;29;20071;-71
2021/04/07 13:24:09;;;;;;;1.73;0.60;;;;;;;;;;6110585;29;20082;-71
2021/04/07 13:27:10;;;;;;;8.88;0.70;;;;;;;;;;6115719;29;20055;-70
2021/04/07 13:30:13;;;;;;;6.40;0.93;;;;;;;;;;6117197;29;20048;-70
2021/04/07 13:33:17;;;;;;;;;;;;;;;;;;6113096;29;20048;-69
2021/04/07 13:36:20;;;;;;;34.53;2.30;;;;;;;;;;6116378;29;19932;-70
2021/04/07 13:39:23;;;;;;;5.65;0.90;;;;;;;;;;6110016;29;20474;-70
2021/04/07 13:42:51;;;;;;;2.38;0.47;;;;;;;;;;6110342;29;20044;-69
2021/04/07 13:45:52;;;;;;;1.95;0.60;;;;;;;;;;6102407;29;20056;-71
2021/04/07 13:48:53;;;;;;;1.48;0.60;;;;;;;;;;6110780;29;20082;-70
2021/04/07 13:51:55;;;;;;;2.95;0.50;;;;;;;;;;6115043;29;20055;-70
2021/04/07 13:54:57;;;;;;;4.75;0.63;;;;;;;;;;6115293;29;20142;-70
2021/04/07 13:57:58;;;;;;;8.68;1.02;;;;;;;;;;6112349;29;20051;-71
2021/04/07 14:00:59;;;;;;;3.92;0.93;;;;;;;;;;6114860;29;20147;-72
2021/04/07 14:04:01;;;;;;;3.83;0.60;;;;;;;;;;6118605;29;20163;-70
2021/04/07 14:07:03;;;;;;;10.48;0.82;;;;;;;;;;6118149;29;20139;-69
2021/04/07 14:10:06;;;;;;;1.98;0.50;;;;;;;;;;6116290;29;20051;-70
2021/04/07 14:13:08;;;;;;;4.80;0.60;;;;;;;;;;6112036;29;20042;-72
2021/04/07 14:16:09;;;;;;;2.45;0.68;;;;;;;;;;6109543;29;20054;-71
2021/04/07 14:19:10;;;;;;;22.52;1.45;;;;;;;;;;6107949;29;20047;-72
2021/04/07 14:22:12;;;;;;;28.00;1.52;;;;;;;;;;6110907;29;20076;-70
2021/04/07 14:25:15;;;;;;;7.25;1.48;;;;;;;;;;6114313;29;20100;-72
2021/04/07 14:28:17;;;;;;;61.40;4.68;;;;;;;;;;6115424;29;20143;-72
2021/04/07 14:31:18;;;;;;;22.25;2.58;;;;;;;;;;6102291;29;20090;-73
2021/04/07 14:34:19;;;;;;;25.77;2.70;;;;;;;;;;6110247;29;20193;-73
2021/04/07 14:37:21;;;;;;;22.70;2.03;;;;;;;;;;6107678;29;20554;-72
2021/04/07 14:40:22;;;;;;;41.70;2.85;;;;;;;;;;6107005;29;20075;-71
2021/04/07 14:43:23;;;;;;;72.53;4.88;;;;;;;;;;6105738;29;20552;-70
2021/04/07 14:46:26;;;;;;;102.15;5.85;;;;;;;;;;6112368;29;20075;-72
2021/04/07 14:49:27;;;;;;;45.47;3.33;;;;;;;;;;6118940;28;20071;-72
2021/04/07 14:52:29;;;;;;;82.05;6.47;;;;;;;;;;6110014;29;20077;-72
2021/04/07 14:55:30;;;;;;;48.50;3.92;;;;;;;;;;6104001;29;20060;-72
2021/04/07 14:58:32;;;;;;;42.47;2.60;;;;;;;;;;6104274;29;20158;-72
2021/04/07 15:01:33;;;;;;;24.50;2.00;;;;;;;;;;6103655;29;20122;-72
2021/04/07 15:04:34;;;;;;;51.53;2.58;;;;;;;;;;6110261;29;20159;-73
2021/04/07 15:07:36;;;;;;;43.28;2.88;;;;;;;;;;6111906;29;20065;-73
2021/04/07 15:10:37;;;;;;;27.50;1.97;;;;;;;;;;6101340;29;20403;-73
2021/04/07 15:13:38;;;;;;;3.63;0.70;;;;;;;;;;6109679;29;20064;-74
2021/04/07 15:16:39;;;;;;;4.78;0.70;;;;;;;;;;6102935;29;20425;-72
2021/04/07 15:19:40;;;;;;;10.57;1.10;;;;;;;;;;6107874;29;20084;-72
2021/04/07 15:22:43;;;;;;;25.15;2.88;;;;;;;;;;6108969;29;20198;-72
2021/04/07 15:25:54;;;;;;;33.03;2.40;;;;;;;;;;6113058;29;20052;-74
2021/04/07 15:28:55;;;;;;;1.33;0.60;;;;;;;;;;6115658;29;20083;-70
2021/04/07 15:31:57;;;;;;;2.30;0.63;;;;;;;;;;6106866;29;20047;-72
2021/04/07 15:34:58;;;;;;;57.58;5.75;;;;;;;;;;6103248;29;20103;-71
2021/04/07 15:38:00;;;;;;;24.83;2.40;;;;;;;;;;6102701;29;20056;-72
2021/04/07 15:41:02;;;;;;;24.53;1.67;;;;;;;;;;6104759;29;20503;-70
2021/04/07 15:44:03;;;;;;;1.23;0.50;;;;;;;;;;6099448;29;20082;-72
2021/04/07 15:47:04;;;;;;;6.78;0.70;;;;;;;;;;6105617;29;20419;-73
2021/04/07 15:50:06;;;;;;;40.22;2.92;;;;;;;;;;6104290;29;20098;-72
2021/04/07 15:53:16;;;;;;;12.55;1.58;;;;;;;;;;6106217;29;20084;-73
2021/04/07 15:56:17;;;;;;;27.38;2.50;;;;;;;;;;6095621;29;20051;-73
2021/04/07 15:59:19;;;;;;;4.28;0.80;;;;;;;;;;6105239;29;20491;-72
2021/04/07 16:02:20;;;;;;;6.82;1.10;;;;;;;;;;6105459;29;20163;-72
2021/04/07 16:05:21;;;;;;;3.65;0.70;;;;;;;;;;6112941;29;20083;-72
2021/04/07 16:08:23;;;;;;;5.10;0.60;;;;;;;;;;6109722;29;20562;-73
2021/04/07 16:11:24;;;;;;;1.73;0.70;;;;;;;;;;6104975;29;21435;-72
2021/04/07 16:14:26;;;;;;;4.75;0.80;;;;;;;;;;6109552;29;20047;-72
2021/04/07 16:17:27;;;;;;;3.85;0.95;;;;;;;;;;6108774;29;20111;-73
2021/04/07 16:20:29;;;;;;;12.23;1.45;;;;;;;;;;6115805;29;20084;-72
2021/04/07 16:23:31;;;;;;;;;;;;;;;;;;6106825;29;20151;-70
2021/04/07 16:26:32;;;;;;;14.18;1.02;;;;;;;;;;6103481;29;20608;-71
2021/04/07 16:29:34;;;;;;;27.75;1.88;;;;;;;;;;6109709;29;20843;-73
2021/04/07 16:32:35;;;;;;;17.77;1.90;;;;;;;;;;6111987;29;20066;-72
2021/04/07 16:35:36;;;;;;;18.58;2.33;;;;;;;;;;6111716;29;20155;-70
2021/04/07 16:38:38;;;;;;;54.78;3.95;;;;;;;;;;6109924;29;20470;-72
2021/04/07 16:41:39;;;;;;;25.65;2.05;;;;;;;;;;6106299;29;20146;-71
2021/04/07 16:44:40;;;;;;;18.83;1.65;;;;;;;;;;6095711;29;20142;-72
2021/04/07 16:47:41;;;;;;;9.20;1.35;;;;;;;;;;6111936;29;20131;-71
2021/04/07 16:50:42;;;;;;;20.25;3.42;;;;;;;;;;6105229;29;20134;-70
2021/04/07 16:53:44;;;;;;;31.55;2.25;;;;;;;;;;6102821;29;20712;-72
2021/04/07 16:56:45;;;;;;;28.00;1.67;;;;;;;;;;6107139;29;20093;-72
2021/04/07 16:59:46;;;;;;;26.85;2.05;;;;;;;;;;6104331;29;20159;-72
2021/04/07 17:02:49;;;;;;;41.70;3.45;;;;;;;;;;6111176;29;20056;-71
2021/04/07 17:05:50;;;;;;;12.90;0.93;;;;;;;;;;6108451;28;20054;-71
2021/04/07 17:08:52;;;;;;;10.95;1.10;;;;;;;;;;6111477;29;20119;-71
2021/04/07 17:11:53;;;;;;;28.17;2.10;;;;;;;;;;6115867;29;20728;-72
2021/04/07 17:14:54;;;;;;;1.63;0.80;;;;;;;;;;6112787;29;20078;-70
2021/04/07 17:17:55;;;;;;;4.93;1.00;;;;;;;;;;6112346;28;20040;-72
2021/04/07 17:20:56;;;;;;;2.83;0.88;;;;;;;;;;6111389;29;20885;-72
2021/04/07 17:23:58;;;;;;;6.53;0.80;;;;;;;;;;6116748;29;20071;-71
2021/04/07 17:26:59;;;;;;;7.35;0.93;;;;;;;;;;6118907;29;20076;-71
2021/04/07 17:30:00;;;;;;;12.95;0.95;;;;;;;;;;6118470;29;20135;-70
2021/04/07 17:33:02;;;;;;;12.30;1.40;;;;;;;;;;6119996;29;20075;-70
2021/04/07 17:36:03;;;;;;;3.22;0.73;;;;;;;;;;6121597;29;20149;-71
2021/04/07 17:39:06;;;;;;;5.95;1.10;;;;;;;;;;6126416;29;20460;-72
2021/04/07 17:42:08;;;;;;;2.60;0.80;;;;;;;;;;6118078;29;20645;-70
2021/04/07 17:45:10;;;;;;;6.85;0.77;;;;;;;;;;6114266;29;20230;-70
2021/04/07 17:48:12;;;;;;;3.83;0.80;;;;;;;;;;6114294;29;20576;-69
2021/04/07 17:51:13;;;;;;;1.98;0.80;;;;;;;;;;6102156;29;20076;-70
2021/04/07 17:54:15;;;;;;;9.25;1.00;;;;;;;;;;6092000;29;20082;-70
2021/04/07 17:57:16;;;;;;;8.73;1.13;;;;;;;;;;6093013;29;20176;-70
2021/04/07 18:00:19;;;;;;;4.03;1.10;;;;;;;;;;6094307;29;20076;-70
2021/04/07 18:03:21;;;;;;;4.20;0.90;;;;;;;;;;6093327;29;20056;-70
2021/04/07 18:06:22;;;;;;;2.80;1.05;;;;;;;;;;6089202;29;20135;-68
2021/04/07 18:09:23;;;;;;;2.70;1.23;;;;;;;;;;6093220;29;20124;-69